Etusivu
METAR-TAF:

METAR-TAF

Lentoasemat :

LaGrange-Callaway Airport

LaGrange, Georgia, Yhdysvallat

Leveyspiiri: 33-00-32N, Pituuspiiri: 085-04-21W, korkeus merenpinnasta: 211 m

Tämänhetkinen sää

Tämä raportti tehtiin 29 minuuttia sitten, kello 00.15 UTC
Tuuli 13 kn kaakosta
Lämpötila 17°C
Kosteus 100%
Ilmanpaine 1012 hPa
Näkyvyys: 16.1 km
Hajanaisia pilviä 7500 ft:n korkeudessa
Pilvistä 10000 ft:n korkeudessa
sadetta

METAR: KLGC 260015Z AUTO 14013KT 10SM RA SCT075 OVC100 17/17 A2989 RMK AO2 T01710168

Aika: 20:44 (00:44 UTC)


TAF: puuttuu

Säähavainnot ja -ennusteet yli 4000 lentoasemalta (METAR- ja TAF-raportit).

Käytössä olevat sääasemat on merkitty karttaan keltaisilla ja punaisilla pisteillä.

Aseta hiiri pisteen päälle nähdäksesi sääaseman nimen.

Klikkaa sitten nähdäksesi säähavainnot ja -ennusteet.

Kartan vaihtaminen: klikkaa mustalla rastilla varustettuja vihreitä pisteitä, niin voit zoomata sisään; viivalla varustettua vihreää pistettä, niin voit zoomata ulos tai vihreitä nuolia, niin pääset viereisille kartoille.


METAR-TAF: